createdAt,value
2018-04-19T00:01:10.592Z,19.27
2018-04-19T00:03:36.590Z,20.07
2018-04-19T00:06:03.401Z,20.10
2018-04-19T00:08:29.299Z,19.10
2018-04-19T00:10:55.601Z,21.37
2018-04-19T00:13:21.472Z,23.30
2018-04-19T00:15:47.459Z,22.23
2018-04-19T00:18:14.530Z,22.47
2018-04-19T00:20:40.468Z,22.43
2018-04-19T00:23:06.300Z,22.33
2018-04-19T00:25:32.215Z,21.33
2018-04-19T00:27:58.171Z,20.67
2018-04-19T00:30:24.261Z,19.90
2018-04-19T00:32:50.204Z,22.17
2018-04-19T00:35:16.068Z,23.23
2018-04-19T00:37:41.948Z,21.83
2018-04-19T00:40:08.252Z,22.57
2018-04-19T00:42:34.191Z,23.67
2018-04-19T00:45:00.067Z,23.27
2018-04-19T00:47:25.972Z,24.10
2018-04-19T00:49:51.953Z,22.03
2018-04-19T00:52:18.023Z,23.63
2018-04-19T00:54:44.313Z,23.70
2018-04-19T00:57:10.224Z,23.23
2018-04-19T00:59:36.089Z,23.03
2018-04-19T01:02:01.996Z,23.07
2018-04-19T01:04:27.963Z,22.27
2018-04-19T01:06:53.876Z,23.77
2018-04-19T01:09:20.124Z,25.23
2018-04-19T01:11:46.006Z,23.53
2018-04-19T01:14:11.963Z,22.07
2018-04-19T01:16:37.989Z,23.07
2018-04-19T01:19:03.919Z,22.37
2018-04-19T01:21:29.874Z,22.60
2018-04-19T01:23:55.799Z,21.53
2018-04-19T01:26:21.713Z,23.60
2018-04-19T01:28:47.700Z,21.43
2018-04-19T01:31:13.676Z,23.17
2018-04-19T01:33:39.563Z,23.63
2018-04-19T01:36:18.876Z,23.07
2018-04-19T01:38:44.764Z,23.00
2018-04-19T01:41:10.745Z,23.87
2018-04-19T01:43:36.765Z,22.47
2018-04-19T01:46:02.644Z,22.37
2018-04-19T01:48:28.524Z,21.40
2018-04-19T01:50:55.341Z,23.10
2018-04-19T01:53:21.307Z,23.90
2018-04-19T01:55:47.219Z,24.47
2018-04-19T01:58:13.136Z,23.63
2018-04-19T02:00:39.016Z,23.50
2018-04-19T02:03:04.894Z,23.53
2018-04-19T02:05:31.357Z,23.13
2018-04-19T02:07:57.301Z,24.63
2018-04-19T02:10:23.184Z,24.70
2018-04-19T02:12:49.092Z,24.13
2018-04-19T02:15:14.969Z,24.70
2018-04-19T02:17:40.947Z,22.90
2018-04-19T02:20:06.937Z,25.10
2018-04-19T02:22:32.835Z,26.07
2018-04-19T02:24:58.707Z,24.87
2018-04-19T02:27:24.779Z,26.00
2018-04-19T02:29:50.731Z,25.80
2018-04-19T02:32:16.656Z,25.70
2018-04-19T02:34:42.900Z,23.07
2018-04-19T02:37:08.784Z,23.57
2018-04-19T02:39:34.673Z,24.10
2018-04-19T02:42:00.710Z,22.83
2018-04-19T02:44:26.649Z,22.30
2018-04-19T02:46:52.526Z,24.33
2018-04-19T02:49:18.465Z,22.33
2018-04-19T02:51:44.324Z,21.07
2018-04-19T02:54:10.327Z,21.40
2018-04-19T02:56:36.532Z,23.57
2018-04-19T02:59:02.416Z,24.07
2018-04-19T03:01:28.281Z,21.97
2018-04-19T03:03:54.218Z,21.50
2018-04-19T03:06:20.213Z,22.93
2018-04-19T03:08:46.159Z,24.90
2018-04-19T03:11:12.066Z,23.40
2018-04-19T03:13:37.932Z,23.13
2018-04-19T03:16:03.830Z,25.67
2018-04-19T03:18:29.869Z,23.93
2018-04-19T03:20:55.811Z,23.07
2018-04-19T03:23:21.696Z,21.33
2018-04-19T03:25:47.594Z,23.73
2018-04-19T03:28:14.227Z,24.87
2018-04-19T03:30:40.180Z,23.13
2018-04-19T03:33:06.885Z,22.47
2018-04-19T03:35:32.809Z,22.37
2018-04-19T03:37:58.711Z,20.60
2018-04-19T03:40:24.632Z,22.23
2018-04-19T03:42:50.592Z,22.53
2018-04-19T03:45:16.516Z,21.93
2018-04-19T03:47:42.785Z,23.70
2018-04-19T03:50:08.689Z,23.50
2018-04-19T03:52:34.579Z,22.37
2018-04-19T03:55:00.575Z,24.60
2018-04-19T03:57:26.520Z,24.37
2018-04-19T03:59:52.418Z,21.67
2018-04-19T04:02:18.345Z,22.80
2018-04-19T04:04:44.207Z,23.23
2018-04-19T04:07:10.139Z,23.00
2018-04-19T04:09:36.099Z,23.43
2018-04-19T04:12:01.974Z,22.67
2018-04-19T04:14:27.903Z,22.23
2018-04-19T04:17:06.187Z,22.87
2018-04-19T04:19:45.701Z,21.90
2018-04-19T04:22:23.977Z,23.20
2018-04-19T04:24:51.645Z,23.70
2018-04-19T04:27:17.515Z,22.70
2018-04-19T04:29:43.521Z,22.53
2018-04-19T04:32:09.440Z,22.40
2018-04-19T04:34:35.336Z,26.67
2018-04-19T04:37:01.269Z,27.00
2018-04-19T04:39:27.157Z,25.20
2018-04-19T04:41:53.171Z,25.10
2018-04-19T04:44:19.205Z,25.80
2018-04-19T04:46:45.107Z,25.13
2018-04-19T04:49:11.019Z,26.07
2018-04-19T04:51:36.999Z,25.67
2018-04-19T04:54:03.008Z,26.17
2018-04-19T04:56:28.915Z,24.77
2018-04-19T04:58:54.838Z,25.47
2018-04-19T05:01:20.712Z,25.77
2018-04-19T05:03:46.636Z,25.97
2018-04-19T05:06:12.730Z,26.53
2018-04-19T05:08:39.642Z,27.03
2018-04-19T05:11:05.503Z,25.63
2018-04-19T05:13:31.421Z,26.70
2018-04-19T05:15:57.327Z,26.43
2018-04-19T05:18:23.354Z,25.47
2018-04-19T05:20:49.312Z,26.47
2018-04-19T05:23:15.252Z,27.60
2018-04-19T05:25:41.114Z,26.37
2018-04-19T05:28:07.055Z,25.53
2018-04-19T05:30:33.847Z,27.63
2018-04-19T05:32:59.784Z,27.23
2018-04-19T05:35:25.695Z,28.57
2018-04-19T05:37:51.574Z,27.70
2018-04-19T05:40:17.430Z,28.10
2018-04-19T05:42:43.416Z,28.30
2018-04-19T05:45:09.356Z,26.60
2018-04-19T05:47:35.227Z,26.97
2018-04-19T05:50:01.148Z,28.07
2018-04-19T05:52:27.026Z,27.73
2018-04-19T05:54:52.991Z,29.47
2018-04-19T05:57:18.980Z,27.50
2018-04-19T05:59:44.856Z,28.27
2018-04-19T06:02:10.742Z,28.00
2018-04-19T06:04:36.652Z,27.87
2018-04-19T06:07:03.356Z,27.63
2018-04-19T06:09:29.316Z,29.93
2018-04-19T06:11:55.622Z,28.27
2018-04-19T06:14:21.491Z,27.17
2018-04-19T06:16:47.366Z,29.00
2018-04-19T06:19:13.364Z,27.90
2018-04-19T06:21:39.300Z,29.00
2018-04-19T06:24:05.179Z,27.40
2018-04-19T06:26:31.128Z,27.53
2018-04-19T06:28:57.011Z,27.90
2018-04-19T06:31:22.984Z,27.13
2018-04-19T06:33:48.951Z,27.07
2018-04-19T06:36:14.816Z,24.60
2018-04-19T06:38:40.686Z,25.47
2018-04-19T06:41:06.626Z,24.40
2018-04-19T06:43:32.593Z,24.20
2018-04-19T06:45:58.532Z,21.03
2018-04-19T06:48:24.476Z,23.93
2018-04-19T06:50:50.365Z,22.27
2018-04-19T06:53:16.239Z,20.93
2018-04-19T06:55:42.223Z,20.63
2018-04-19T06:58:08.155Z,21.57
2018-04-19T07:00:34.012Z,21.47
2018-04-19T07:03:00.228Z,19.80
2018-04-19T07:05:26.099Z,18.40
2018-04-19T07:07:52.055Z,17.93
2018-04-19T07:10:18.040Z,15.10
2018-04-19T07:12:43.901Z,14.37
2018-04-19T07:15:09.766Z,13.57
2018-04-19T07:17:35.681Z,14.43
2018-04-19T07:20:01.651Z,14.57
2018-04-19T07:22:27.680Z,13.77
2018-04-19T07:24:54.676Z,13.00
2018-04-19T07:27:20.587Z,13.53
2018-04-19T07:29:46.791Z,13.53
2018-04-19T07:32:13.885Z,12.90
2018-04-19T07:34:39.778Z,12.93
2018-04-19T07:37:06.084Z,14.10
2018-04-19T07:39:31.999Z,14.20
2018-04-19T07:41:58.182Z,13.53
2018-04-19T07:44:24.149Z,13.07
2018-04-19T07:46:50.096Z,13.77
2018-04-19T07:49:16.396Z,13.33
2018-04-19T07:51:42.324Z,13.37
2018-04-19T07:54:08.256Z,13.20
2018-04-19T07:56:34.209Z,13.80
2018-04-19T07:59:00.558Z,13.10
2018-04-19T08:01:27.083Z,13.70
2018-04-19T08:03:53.242Z,12.17
2018-04-19T08:06:19.139Z,13.47
2018-04-19T08:08:45.162Z,12.70
2018-04-19T08:11:11.144Z,13.73
2018-04-19T08:13:36.997Z,13.27
2018-04-19T08:16:02.948Z,14.80
2018-04-19T08:18:28.839Z,14.17
2018-04-19T08:20:54.800Z,14.20
2018-04-19T08:23:21.073Z,14.17
2018-04-19T08:25:46.944Z,14.20
2018-04-19T08:28:12.824Z,13.57
2018-04-19T08:30:38.740Z,13.60
2018-04-19T08:33:04.705Z,13.40
2018-04-19T08:35:30.683Z,13.60
2018-04-19T08:37:56.983Z,13.53
2018-04-19T08:40:23.161Z,14.30
2018-04-19T08:42:49.062Z,14.10
2018-04-19T08:45:15.381Z,11.67
2018-04-19T08:47:41.318Z,12.57
2018-04-19T08:50:07.184Z,12.00
2018-04-19T08:52:33.123Z,11.60
2018-04-19T08:54:59.032Z,11.20
2018-04-19T08:57:25.007Z,9.87
2018-04-19T08:59:51.000Z,9.23
2018-04-19T09:02:16.858Z,8.10
2018-04-19T09:04:43.797Z,7.80
2018-04-19T09:07:09.707Z,10.17
2018-04-19T09:09:35.743Z,7.77
2018-04-19T09:12:01.670Z,8.00
2018-04-19T09:14:27.592Z,8.93
2018-04-19T09:16:53.536Z,9.93
2018-04-19T09:22:08.440Z,10.57
2018-04-19T09:24:34.308Z,8.30
2018-04-19T09:27:00.176Z,7.07
2018-04-19T09:29:26.091Z,11.07
2018-04-19T09:31:51.971Z,10.87
2018-04-19T09:34:17.979Z,10.50
2018-04-19T09:36:43.899Z,11.43
2018-04-19T09:39:09.763Z,10.70
2018-04-19T09:41:35.645Z,11.20
2018-04-19T09:44:01.564Z,10.10
2018-04-19T09:46:27.572Z,8.27
2018-04-19T09:48:53.445Z,9.27
2018-04-19T09:51:22.443Z,8.43
2018-04-19T09:53:48.386Z,10.87
2018-04-19T09:56:14.223Z,11.83
2018-04-19T09:58:40.308Z,12.40
2018-04-19T10:01:08.123Z,11.17
2018-04-19T10:03:40.153Z,11.20
2018-04-19T10:06:07.980Z,11.90
2018-04-19T10:08:34.927Z,12.87
2018-04-19T10:11:00.987Z,11.73
2018-04-19T10:13:26.875Z,11.37
2018-04-19T10:15:52.781Z,11.10
2018-04-19T10:18:18.715Z,12.73
2018-04-19T10:20:44.583Z,11.77
2018-04-19T10:23:10.599Z,12.60
2018-04-19T10:25:36.561Z,11.93
2018-04-19T10:28:02.423Z,12.97
2018-04-19T10:30:29.157Z,12.83
2018-04-19T10:32:55.086Z,11.50
2018-04-19T10:35:21.096Z,11.73
2018-04-19T10:37:46.957Z,12.03
2018-04-19T10:40:12.877Z,11.47
2018-04-19T10:42:38.755Z,11.30
2018-04-19T10:45:04.645Z,10.30
2018-04-19T10:47:30.700Z,10.03
2018-04-19T10:49:56.819Z,10.43
2018-04-19T10:52:22.689Z,10.70
2018-04-19T10:54:48.589Z,11.73
2018-04-19T10:57:14.456Z,12.17
2018-04-19T10:59:41.278Z,9.57
2018-04-19T11:02:07.198Z,9.37
2018-04-19T11:04:33.099Z,9.03
2018-04-19T11:06:59.011Z,7.57
2018-04-19T11:09:27.007Z,6.90
2018-04-19T11:11:53.036Z,6.63
2018-04-19T11:14:19.956Z,7.60
2018-04-19T11:16:45.876Z,7.23
2018-04-19T11:19:11.756Z,6.77
2018-04-19T11:21:37.736Z,7.13
2018-04-19T11:24:03.815Z,6.17
2018-04-19T11:26:29.750Z,5.80
2018-04-19T11:28:55.629Z,7.07
2018-04-19T11:31:21.681Z,6.53
2018-04-19T11:33:48.671Z,5.90
2018-04-19T11:36:14.806Z,5.90
2018-04-19T11:38:41.168Z,5.63
2018-04-19T11:41:07.036Z,6.50
2018-04-19T11:43:32.956Z,4.93
2018-04-19T11:45:58.859Z,5.90
2018-04-19T11:48:24.876Z,4.80
2018-04-19T11:50:54.683Z,4.33
2018-04-19T11:53:20.595Z,5.90
2018-04-19T11:55:46.458Z,5.83
2018-04-19T11:58:12.326Z,5.40
2018-04-19T12:00:38.386Z,6.43
2018-04-19T12:03:04.270Z,5.50
2018-04-19T12:05:30.178Z,5.90
2018-04-19T12:07:56.095Z,5.53
2018-04-19T12:10:21.984Z,5.37
2018-04-19T12:12:48.025Z,5.37
2018-04-19T12:15:13.981Z,5.40
2018-04-19T12:17:39.855Z,5.50
2018-04-19T12:20:05.762Z,5.47
2018-04-19T12:22:31.673Z,5.13
2018-04-19T12:24:57.921Z,5.30
2018-04-19T12:27:23.811Z,4.63
2018-04-19T12:29:50.664Z,4.70
2018-04-19T12:32:16.567Z,4.47
2018-04-19T12:34:42.464Z,5.60
2018-04-19T12:37:08.607Z,5.27
2018-04-19T12:39:34.489Z,4.03
2018-04-19T12:42:00.376Z,4.57
2018-04-19T12:44:26.295Z,4.60
2018-04-19T12:46:52.179Z,4.77
2018-04-19T12:49:18.199Z,4.77
2018-04-19T12:51:44.100Z,5.90
2018-04-19T12:54:10.044Z,4.47
2018-04-19T12:56:35.915Z,5.30
2018-04-19T12:59:01.831Z,5.73
2018-04-19T13:01:28.613Z,5.30
2018-04-19T13:03:54.475Z,4.77
2018-04-19T13:06:20.387Z,5.60
2018-04-19T13:08:46.263Z,5.00
2018-04-19T13:11:12.183Z,4.33
2018-04-19T13:13:38.256Z,5.53
2018-04-19T13:16:04.156Z,5.20
2018-04-19T13:18:30.035Z,5.37
2018-04-19T13:20:55.992Z,5.17
2018-04-19T13:23:21.868Z,4.03
2018-04-19T13:25:48.040Z,4.63
2018-04-19T13:28:13.893Z,3.87
2018-04-19T13:30:39.812Z,4.03
2018-04-19T13:33:05.680Z,4.73
2018-04-19T13:35:31.646Z,3.93
2018-04-19T13:37:57.671Z,4.80
2018-04-19T13:40:24.649Z,4.67
2018-04-19T13:42:50.979Z,5.60
2018-04-19T13:45:16.862Z,4.97
2018-04-19T13:47:42.759Z,4.73
2018-04-19T13:50:08.843Z,5.63
2018-04-19T13:52:34.724Z,4.80
2018-04-19T13:55:00.638Z,5.17
2018-04-19T13:57:26.583Z,4.23
2018-04-19T13:59:52.525Z,5.20
2018-04-19T14:02:18.540Z,4.37
2018-04-19T14:04:44.439Z,4.97
2018-04-19T14:07:11.231Z,5.30
2018-04-19T14:09:37.139Z,4.60
2018-04-19T14:12:03.064Z,5.40
2018-04-19T14:14:29.552Z,5.23
2018-04-19T14:16:55.436Z,4.40
2018-04-19T14:19:21.357Z,4.90
2018-04-19T14:21:47.237Z,4.30
2018-04-19T14:24:13.147Z,4.40
2018-04-19T14:26:39.209Z,4.73
2018-04-19T14:29:05.072Z,4.23
2018-04-19T14:31:30.978Z,5.00
2018-04-19T14:33:56.896Z,4.43
2018-04-19T14:36:22.772Z,4.67
2018-04-19T14:38:48.808Z,4.17
2018-04-19T14:41:14.881Z,3.70
2018-04-19T14:43:40.859Z,4.40
2018-04-19T14:46:06.765Z,4.07
2018-04-19T14:48:32.677Z,4.17
2018-04-19T14:50:58.722Z,3.97
2018-04-19T14:53:24.585Z,4.53
2018-04-19T14:55:50.495Z,4.73
2018-04-19T14:58:16.358Z,4.00
2018-04-19T15:00:42.284Z,3.40
2018-04-19T15:03:08.647Z,4.23
2018-04-19T15:05:34.544Z,4.27
2018-04-19T15:08:00.428Z,4.00
2018-04-19T15:10:26.364Z,4.40
2018-04-19T15:12:52.286Z,4.07
2018-04-19T15:15:18.323Z,3.50
2018-04-19T15:17:44.230Z,3.93
2018-04-19T15:20:10.101Z,3.40
2018-04-19T15:22:35.979Z,3.83
2018-04-19T15:25:01.934Z,4.03
2018-04-19T15:27:27.933Z,3.90
2018-04-19T15:29:53.829Z,3.67
2018-04-19T15:32:19.798Z,3.40
2018-04-19T15:34:45.692Z,3.47
2018-04-19T15:37:11.559Z,3.77
2018-04-19T15:39:37.640Z,3.90
2018-04-19T15:42:03.517Z,4.03
2018-04-19T15:44:29.408Z,4.00
2018-04-19T15:46:55.331Z,3.57
2018-04-19T15:49:21.236Z,3.70
2018-04-19T15:51:47.243Z,4.00
2018-04-19T15:54:13.156Z,4.00
2018-04-19T15:56:39.053Z,3.73
2018-04-19T15:59:04.952Z,3.83
2018-04-19T16:01:30.896Z,3.00
2018-04-19T16:03:56.895Z,3.50
2018-04-19T16:06:22.768Z,3.40
2018-04-19T16:08:48.705Z,3.20
2018-04-19T16:11:14.656Z,3.00
2018-04-19T16:13:40.502Z,2.70
2018-04-19T16:16:06.588Z,3.07
2018-04-19T16:18:32.447Z,3.10
2018-04-19T16:20:59.395Z,3.10
2018-04-19T16:23:25.293Z,2.90
2018-04-19T16:25:51.180Z,3.00
2018-04-19T16:28:17.194Z,3.17
2018-04-19T16:30:43.106Z,3.13
2018-04-19T16:33:08.987Z,3.00
2018-04-19T16:35:34.884Z,3.00
2018-04-19T16:38:01.107Z,3.10
2018-04-19T16:40:27.188Z,3.37
2018-04-19T16:42:53.044Z,2.70
2018-04-19T16:45:19.001Z,2.90
2018-04-19T16:47:44.871Z,3.03
2018-04-19T16:50:10.781Z,3.13
2018-04-19T16:52:36.850Z,3.07
2018-04-19T16:55:02.752Z,2.90
2018-04-19T16:57:29.701Z,3.27
2018-04-19T16:59:55.617Z,3.37
2018-04-19T17:02:21.505Z,2.90
2018-04-19T17:04:47.528Z,3.00
2018-04-19T17:07:13.455Z,2.80
2018-04-19T17:09:39.355Z,2.90
2018-04-19T17:12:05.247Z,3.00
2018-04-19T17:14:31.168Z,2.87
2018-04-19T17:16:57.201Z,3.00
2018-04-19T17:19:23.109Z,3.23
2018-04-19T17:21:49.098Z,3.27
2018-04-19T17:24:14.961Z,2.83
2018-04-19T17:26:40.856Z,3.10
2018-04-19T17:29:07.748Z,3.10
2018-04-19T17:31:33.682Z,3.10
2018-04-19T17:33:59.577Z,3.03
2018-04-19T17:36:25.484Z,3.37
2018-04-19T17:38:52.370Z,3.50
2018-04-19T17:41:18.423Z,3.97
2018-04-19T17:43:44.359Z,4.00
2018-04-19T17:46:10.233Z,4.20
2018-04-19T17:48:36.122Z,5.83
2018-04-19T17:51:02.057Z,5.60
2018-04-19T17:53:28.088Z,5.60
2018-04-19T17:55:53.949Z,6.20
2018-04-19T17:58:19.851Z,6.30
2018-04-19T18:00:45.782Z,7.10
2018-04-19T18:03:11.655Z,7.43
2018-04-19T18:05:37.736Z,7.83
2018-04-19T18:08:03.610Z,8.73
2018-04-19T18:10:29.485Z,9.57
2018-04-19T18:12:55.771Z,11.93
2018-04-19T18:15:21.655Z,11.67
2018-04-19T18:17:47.660Z,10.47
2018-04-19T18:20:14.648Z,12.50
2018-04-19T18:22:40.525Z,11.77
2018-04-19T18:25:06.412Z,10.03
2018-04-19T18:27:32.339Z,9.07
2018-04-19T18:29:58.331Z,9.57
2018-04-19T18:32:24.200Z,9.97
2018-04-19T18:34:50.123Z,5.87
2018-04-19T18:37:16.007Z,5.63
2018-04-19T18:39:41.884Z,5.67
2018-04-19T18:42:07.950Z,6.27
2018-04-19T18:44:33.927Z,6.03
2018-04-19T18:46:59.787Z,5.87
2018-04-19T18:49:26.305Z,5.50
2018-04-19T18:51:52.184Z,6.17
2018-04-19T18:54:18.320Z,5.90
2018-04-19T18:56:44.251Z,5.80
2018-04-19T18:59:10.145Z,6.57
2018-04-19T19:01:36.560Z,6.30
2018-04-19T19:04:02.652Z,7.17
2018-04-19T19:06:29.607Z,7.40
2018-04-19T19:08:55.497Z,8.73
2018-04-19T19:11:21.651Z,9.43
2018-04-19T19:13:47.617Z,8.37
2018-04-19T19:16:13.505Z,7.70
2018-04-19T19:18:52.200Z,7.23
2018-04-19T19:21:18.199Z,7.07
2018-04-19T19:23:44.060Z,6.47
2018-04-19T19:26:09.983Z,6.50
2018-04-19T19:28:35.968Z,5.73
2018-04-19T19:31:02.572Z,5.53
2018-04-19T19:33:28.504Z,5.57
2018-04-19T19:35:55.190Z,5.40
2018-04-19T19:38:21.146Z,5.20
2018-04-19T19:40:47.053Z,6.00
2018-04-19T19:43:13.068Z,5.37
2018-04-19T19:45:39.148Z,5.40
2018-04-19T19:48:05.133Z,5.40
2018-04-19T19:50:31.011Z,5.00
2018-04-19T19:52:56.922Z,5.67
2018-04-19T19:55:23.045Z,5.17
2018-04-19T19:57:48.900Z,5.40
2018-04-19T20:00:14.783Z,5.30
2018-04-19T20:02:40.701Z,6.00
2018-04-19T20:05:06.581Z,6.13
2018-04-19T20:07:32.578Z,5.50
2018-04-19T20:09:58.516Z,5.30
2018-04-19T20:12:24.391Z,5.60
2018-04-19T20:14:50.263Z,5.13
2018-04-19T20:17:16.205Z,5.20
2018-04-19T20:19:42.244Z,5.67
2018-04-19T20:22:08.131Z,5.17
2018-04-19T20:24:34.036Z,5.87
2018-04-19T20:26:59.932Z,5.87
2018-04-19T20:29:25.808Z,5.87
2018-04-19T20:31:51.897Z,5.40
2018-04-19T20:34:17.781Z,5.70
2018-04-19T20:36:43.666Z,6.00
2018-04-19T20:39:09.580Z,5.83
2018-04-19T20:41:36.513Z,5.93
2018-04-19T20:44:02.552Z,5.90
2018-04-19T20:46:28.472Z,6.43
2018-04-19T20:48:54.347Z,6.00
2018-04-19T20:51:20.207Z,6.37
2018-04-19T20:53:46.153Z,6.63
2018-04-19T20:56:12.192Z,6.03
2018-04-19T20:58:38.084Z,6.63
2018-04-19T21:01:04.015Z,5.83
2018-04-19T21:03:29.875Z,6.50
2018-04-19T21:05:55.772Z,6.20
2018-04-19T21:08:21.837Z,6.13
2018-04-19T21:10:47.704Z,6.33
2018-04-19T21:13:13.600Z,6.53
2018-04-19T21:15:39.519Z,6.20
2018-04-19T21:18:05.399Z,5.40
2018-04-19T21:20:31.415Z,5.43
2018-04-19T21:22:57.423Z,5.40
2018-04-19T21:25:23.291Z,5.53
2018-04-19T21:27:49.175Z,6.37
2018-04-19T21:30:15.140Z,5.50
2018-04-19T21:32:41.483Z,5.73
2018-04-19T21:35:07.604Z,6.27
2018-04-19T21:37:34.867Z,6.33
2018-04-19T21:40:01.287Z,5.87
2018-04-19T21:42:27.292Z,6.03
2018-04-19T21:44:53.335Z,5.40
2018-04-19T21:47:19.567Z,6.13
2018-04-19T21:49:45.849Z,5.63
2018-04-19T21:52:12.357Z,6.37
2018-04-19T21:54:38.260Z,6.43
2018-04-19T21:57:04.635Z,5.37
2018-04-19T21:59:31.119Z,5.57
2018-04-19T22:01:57.522Z,6.23
2018-04-19T22:04:23.389Z,5.57
2018-04-19T22:06:49.417Z,6.33
2018-04-19T22:09:15.437Z,6.93
2018-04-19T22:11:41.295Z,6.73
2018-04-19T22:14:07.237Z,6.50
2018-04-19T22:16:33.113Z,6.70
2018-04-19T22:18:58.973Z,6.90
2018-04-19T22:21:25.022Z,6.97
2018-04-19T22:23:50.880Z,7.07
2018-04-19T22:26:16.752Z,6.60
2018-04-19T22:28:42.987Z,6.33
2018-04-19T22:31:08.864Z,6.30
2018-04-19T22:33:34.916Z,6.83
2018-04-19T22:36:00.825Z,7.33
2018-04-19T22:38:26.694Z,7.27
2018-04-19T22:40:52.555Z,8.10
2018-04-19T22:43:18.495Z,7.27
2018-04-19T22:45:44.512Z,7.40
2018-04-19T22:48:10.388Z,7.50
2018-04-19T22:50:36.307Z,6.40
2018-04-19T22:53:02.179Z,7.10
2018-04-19T22:55:28.039Z,6.93
2018-04-19T22:57:54.083Z,6.77
2018-04-19T23:00:19.951Z,6.77
2018-04-19T23:02:45.866Z,6.97
2018-04-19T23:05:12.768Z,7.23
2018-04-19T23:07:38.636Z,8.13
2018-04-19T23:10:04.651Z,8.53
2018-04-19T23:12:30.573Z,9.90
2018-04-19T23:14:56.441Z,9.50
2018-04-19T23:17:22.300Z,9.00
2018-04-19T23:19:48.372Z,8.73
2018-04-19T23:22:14.428Z,9.00
2018-04-19T23:24:40.300Z,8.50
2018-04-19T23:27:06.231Z,8.03
2018-04-19T23:29:32.124Z,7.83
2018-04-19T23:31:58.003Z,8.53
2018-04-19T23:34:24.046Z,8.17
2018-04-19T23:36:49.947Z,7.60
2018-04-19T23:39:15.848Z,8.27
2018-04-19T23:41:41.775Z,8.17
2018-04-19T23:44:07.630Z,8.37
2018-04-19T23:46:33.631Z,8.60
2018-04-19T23:48:59.575Z,9.10
2018-04-19T23:51:25.436Z,8.53
2018-04-19T23:53:51.308Z,9.03
2018-04-19T23:56:17.236Z,8.90
2018-04-19T23:58:43.267Z,8.47
